Time;durP1;ratioP1;P1;durP2;ratioP2;P2;SDS_P1;SDS_P2;PMS_P1;PMS_P2;Temp;Humidity;BMP_temperature;BMP_pressure;BME280_temperature;BME280_humidity;BME280_pressure;Samples;Min_cycle;Max_cycle;Signal;HPM_P1;HPM_P2
2024/03/07 00:00:19;;;;;;;36.10;18.83;;;0.40;99.90;;;-148.53;100.00;63986.66;5029937;28;20033;-84
2024/03/07 00:02:49;;;;;;;31.55;17.80;;;0.30;99.90;;;-148.53;100.00;63986.66;5021610;28;20393;-82
2024/03/07 00:05:17;;;;;;;35.47;17.48;;;0.30;99.90;;;-148.53;100.00;63986.66;5017845;28;20125;-84
2024/03/07 00:07:43;;;;;;;41.13;17.17;;;0.30;99.90;;;-148.53;100.00;63986.66;5025462;28;20493;-83
2024/03/07 00:10:10;;;;;;;35.03;18.20;;;0.40;99.90;;;-148.53;100.00;63986.66;5035206;28;20054;-84
2024/03/07 00:12:42;;;;;;;31.40;16.80;;;0.30;99.90;;;-148.53;100.00;63986.66;5028401;28;20475;-83
2024/03/07 00:15:12;;;;;;;34.08;17.98;;;0.20;99.90;;;-148.53;100.00;63986.66;5034016;28;20057;-83
2024/03/07 00:17:39;;;;;;;33.15;17.15;;;0.10;99.90;;;-148.53;100.00;63986.66;5023916;28;20061;-83
2024/03/07 00:20:13;;;;;;;33.90;17.48;;;0.20;99.90;;;-148.53;100.00;63986.66;5025151;28;20022;-83
2024/03/07 00:22:41;;;;;;;34.95;17.02;;;0.10;99.90;;;-148.53;100.00;63986.66;5026542;28;20048;-82
2024/03/07 00:25:08;;;;;;;33.60;17.40;;;0.10;99.90;;;-148.53;100.00;63986.66;5018653;28;20473;-84
2024/03/07 00:27:35;;;;;;;33.28;17.15;;;0.10;99.90;;;-148.53;100.00;63986.66;5030836;28;20701;-83
2024/03/07 00:30:08;;;;;;;35.10;17.38;;;0.20;99.90;;;-148.53;100.00;63986.66;5024761;28;20084;-83
2024/03/07 00:32:36;;;;;;;35.00;17.77;;;0.10;99.90;;;-148.53;100.00;63986.66;5023111;28;20049;-82
2024/03/07 00:35:05;;;;;;;;;;;0.10;99.90;;;-148.53;100.00;63986.66;5021878;28;20045;-83
2024/03/07 00:37:31;;;;;;;33.63;16.70;;;0.20;99.90;;;-148.53;100.00;63986.66;5033269;28;19991;-83
2024/03/07 00:39:57;;;;;;;30.13;16.10;;;0.40;99.90;;;-148.53;100.00;63986.66;5022771;28;20037;-83
2024/03/07 00:42:23;;;;;;;31.52;16.65;;;0.60;99.90;;;-148.53;100.00;63986.66;5021426;28;20049;-83
2024/03/07 00:44:49;;;;;;;29.42;16.73;;;0.70;99.90;;;-148.53;100.00;63986.66;5021444;28;20461;-81
2024/03/07 00:47:17;;;;;;;32.58;16.02;;;0.60;99.90;;;-148.53;100.00;63986.66;5020249;28;20037;-81
2024/03/07 00:49:46;;;;;;;33.08;16.60;;;0.40;99.90;;;-148.53;100.00;63986.66;5028202;28;20048;-82
2024/03/07 00:52:13;;;;;;;29.42;15.35;;;0.20;99.90;;;-148.53;100.00;63986.66;5016789;28;20434;-82
2024/03/07 00:54:39;;;;;;;31.63;14.98;;;0.10;99.90;;;-148.53;100.00;63986.66;5020301;28;20037;-82
2024/03/07 00:57:04;;;;;;;30.23;15.50;;;0.10;99.90;;;-148.53;100.00;63986.66;5017026;28;20029;-82
2024/03/07 00:59:30;;;;;;;29.50;15.32;;;0.00;99.90;;;-148.53;100.00;63986.66;5024858;28;20501;-82
2024/03/07 01:01:56;;;;;;;27.10;14.80;;;-0.10;99.90;;;-148.53;100.00;63986.66;5028108;28;20043;-82
2024/03/07 01:04:22;;;;;;;25.38;14.45;;;-0.30;99.90;;;-148.53;100.00;63986.66;5015831;28;20041;-81
2024/03/07 01:06:48;;;;;;;27.45;14.48;;;-0.30;99.90;;;-148.53;100.00;63986.66;5027994;28;20047;-82
2024/03/07 01:09:14;;;;;;;30.08;15.20;;;-0.30;99.90;;;-148.53;100.00;63986.66;5015233;28;20041;-82
2024/03/07 01:11:45;;;;;;;33.63;15.73;;;-0.20;99.90;;;-148.53;100.00;63986.66;5015669;28;20050;-82
2024/03/07 01:14:11;;;;;;;27.70;15.13;;;-0.10;99.90;;;-148.53;100.00;63986.66;5025892;28;20079;-82
2024/03/07 01:16:37;;;;;;;32.38;15.57;;;0.10;99.90;;;-148.53;100.00;63986.66;5020422;28;20048;-81
2024/03/07 01:19:05;;;;;;;25.92;14.65;;;0.20;99.90;;;-148.53;100.00;63986.66;5023133;28;20049;-81
2024/03/07 01:21:33;;;;;;;32.35;16.27;;;0.20;99.90;;;-148.53;100.00;63986.66;5018086;28;20094;-81
2024/03/07 01:24:00;;;;;;;29.48;14.68;;;0.20;99.90;;;-148.53;100.00;63986.66;5031385;28;20125;-81
2024/03/07 01:26:28;;;;;;;30.27;15.15;;;0.20;99.90;;;-148.53;100.00;63986.66;5015237;28;20549;-81
2024/03/07 01:28:55;;;;;;;;;;;0.20;99.90;;;-148.53;100.00;63986.66;5015447;28;20042;-81
2024/03/07 01:31:22;;;;;;;30.45;15.20;;;0.20;99.90;;;-148.53;100.00;63986.66;5030712;28;19936;-80
2024/03/07 01:33:48;;;;;;;29.30;16.27;;;0.20;99.90;;;-148.53;100.00;63986.66;5015142;28;20067;-81
2024/03/07 01:36:14;;;;;;;28.52;15.82;;;0.20;99.90;;;-148.53;100.00;63986.66;5015437;28;20049;-80
2024/03/07 01:38:40;;;;;;;27.75;14.55;;;0.20;99.90;;;-148.53;100.00;63986.66;5008798;28;20397;-80
2024/03/07 01:41:05;;;;;;;31.58;16.15;;;0.20;99.90;;;-148.53;100.00;63986.66;5025636;28;20035;-80
2024/03/07 01:43:31;;;;;;;31.83;15.80;;;0.20;99.90;;;-148.53;100.00;63986.66;5022643;28;20486;-81
2024/03/07 01:46:00;;;;;;;30.08;15.63;;;0.20;99.90;;;-148.53;100.00;63986.66;5014666;28;20041;-80
2024/03/07 01:48:31;;;;;;;33.78;16.58;;;0.10;99.90;;;-148.53;100.00;63986.66;5030059;28;20065;-80
2024/03/07 01:50:59;;;;;;;31.45;15.85;;;0.00;99.90;;;-148.53;100.00;63986.66;5015111;28;20041;-80
2024/03/07 01:53:27;;;;;;;28.42;15.18;;;0.00;99.90;;;-148.53;100.00;63986.66;5023733;28;20037;-80
2024/03/07 01:55:56;;;;;;;30.90;14.82;;;0.00;99.90;;;-148.53;100.00;63986.66;5020319;28;20033;-81
2024/03/07 01:58:24;;;;;;;31.98;15.27;;;-0.10;99.90;;;-148.53;100.00;63986.66;5018716;28;20116;-80
2024/03/07 02:00:50;;;;;;;;;;;-0.20;99.90;;;-148.53;100.00;63986.66;5039752;28;20390;-81
2024/03/07 02:03:17;;;;;;;29.10;14.70;;;-0.30;99.90;;;-148.53;100.00;63986.66;5020960;28;19924;-80
2024/03/07 02:05:43;;;;;;;31.35;15.35;;;-0.40;99.90;;;-148.53;100.00;63986.66;5027969;28;20097;-81
2024/03/07 02:08:09;;;;;;;30.05;15.32;;;-0.50;99.90;;;-148.53;100.00;63986.66;5014604;28;20494;-81
2024/03/07 02:10:35;;;;;;;29.73;15.18;;;-0.50;99.90;;;-148.53;100.00;63986.66;5020242;28;20070;-80
2024/03/07 02:13:01;;;;;;;31.88;15.85;;;-0.50;99.90;;;-148.53;100.00;63986.66;5021965;28;20041;-80
2024/03/07 02:15:27;;;;;;;33.60;16.95;;;-0.40;99.90;;;-148.53;100.00;63986.66;5025603;28;20046;-81
2024/03/07 02:17:53;;;;;;;37.42;17.17;;;-0.30;99.90;;;-148.53;100.00;63986.66;5034465;28;20072;-81
2024/03/07 02:20:19;;;;;;;35.75;17.35;;;-0.30;99.90;;;-148.53;100.00;63986.66;5021274;28;20088;-81
2024/03/07 02:22:44;;;;;;;32.67;16.88;;;-0.20;99.90;;;-148.53;100.00;63986.66;5014560;28;20496;-80
2024/03/07 02:25:11;;;;;;;37.45;17.48;;;-0.20;99.90;;;-148.53;100.00;63986.66;5018322;28;20507;-81
2024/03/07 02:27:37;;;;;;;35.38;17.77;;;-0.20;99.90;;;-148.53;100.00;63986.66;5023990;28;20037;-80
2024/03/07 02:30:08;;;;;;;34.80;18.02;;;-0.10;99.90;;;-148.53;100.00;63986.66;5023003;28;20366;-80
2024/03/07 02:32:36;;;;;;;34.28;16.50;;;-0.10;99.90;;;-148.53;100.00;63986.66;5019516;28;20030;-80
2024/03/07 02:35:03;;;;;;;31.88;17.65;;;-0.30;99.90;;;-148.53;100.00;63986.66;5019144;28;20481;-81
2024/03/07 02:37:29;;;;;;;31.35;15.85;;;-0.50;99.90;;;-148.53;100.00;63986.66;5018517;28;20054;-81
2024/03/07 02:39:54;;;;;;;33.30;15.55;;;-0.60;99.90;;;-148.53;100.00;63986.66;5021037;28;20064;-80
2024/03/07 02:42:21;;;;;;;32.65;16.88;;;-0.70;99.90;;;-148.53;100.00;63986.66;5014529;28;20073;-80
2024/03/07 02:44:46;;;;;;;33.10;16.65;;;-0.70;99.90;;;-148.53;100.00;63986.66;5024953;28;20042;-81
2024/03/07 02:47:12;;;;;;;29.88;16.27;;;-0.80;99.90;;;-148.53;100.00;63986.66;5018722;28;20056;-80
2024/03/07 02:49:38;;;;;;;31.02;15.73;;;-0.80;99.90;;;-148.53;100.00;63986.66;5030967;28;20034;-80
2024/03/07 02:52:07;;;;;;;32.38;15.63;;;-0.90;99.90;;;-148.53;100.00;63986.66;5028625;28;20045;-80
2024/03/07 02:54:33;;;;;;;33.67;16.52;;;-0.90;99.90;;;-148.53;100.00;63986.66;5028617;28;20030;-80
2024/03/07 02:57:00;;;;;;;30.88;16.65;;;-0.90;99.90;;;-148.53;100.00;63986.66;5023382;28;20052;-80
2024/03/07 02:59:25;;;;;;;36.60;17.92;;;-0.90;99.90;;;-148.53;100.00;63986.66;5028721;28;20025;-80
2024/03/07 03:01:51;;;;;;;37.90;17.52;;;-0.70;99.90;;;-148.53;100.00;63986.66;5018624;28;20052;-80
2024/03/07 03:04:17;;;;;;;37.33;17.83;;;-0.60;99.90;;;-148.53;100.00;63986.66;4999240;28;20087;-80
2024/03/07 03:06:43;;;;;;;37.85;17.77;;;-0.50;99.90;;;-148.53;100.00;63986.66;5019689;28;20520;-80
2024/03/07 03:09:13;;;;;;;35.55;17.75;;;-0.30;99.90;;;-148.53;100.00;63986.66;5026737;28;20034;-80
2024/03/07 03:11:39;;;;;;;37.78;18.52;;;-0.20;99.90;;;-148.53;100.00;63986.66;5020795;28;20071;-80
2024/03/07 03:14:05;;;;;;;34.10;18.25;;;-0.10;99.90;;;-148.53;100.00;63986.66;5019602;28;20049;-81
2024/03/07 03:16:31;;;;;;;39.20;19.20;;;0.00;99.90;;;-148.53;100.00;63986.66;5013576;28;20041;-80
2024/03/07 03:18:57;;;;;;;38.53;18.83;;;0.10;99.90;;;-148.53;100.00;63986.66;5028592;28;20083;-81
2024/03/07 03:21:23;;;;;;;38.90;19.10;;;0.20;99.90;;;-148.53;100.00;63986.66;5013270;28;20432;-80
2024/03/07 03:23:49;;;;;;;45.90;20.00;;;0.30;99.90;;;-148.53;100.00;63986.66;5026845;28;20029;-81
2024/03/07 03:26:15;;;;;;;42.38;21.13;;;0.30;99.90;;;-148.53;100.00;63986.66;5035728;28;20489;-81
2024/03/07 03:28:41;;;;;;;37.28;19.45;;;0.50;99.90;;;-148.53;100.00;63986.66;5017761;28;20038;-81
2024/03/07 03:31:08;;;;;;;42.80;20.00;;;0.50;99.90;;;-148.53;100.00;63986.66;5025220;28;20529;-82
2024/03/07 03:33:35;;;;;;;40.97;19.27;;;0.60;99.90;;;-148.53;100.00;63986.66;5022437;28;20581;-81
2024/03/07 03:36:01;;;;;;;38.85;19.33;;;0.70;99.90;;;-148.53;100.00;63986.66;5021898;28;20030;-81
2024/03/07 03:38:26;;;;;;;43.70;20.48;;;0.70;99.90;;;-148.53;100.00;63986.66;5018309;28;20043;-80
2024/03/07 03:40:52;;;;;;;40.25;19.88;;;0.70;99.90;;;-148.53;100.00;63986.66;5032220;28;20030;-80
2024/03/07 03:43:18;;;;;;;39.95;19.67;;;0.80;99.90;;;-148.53;100.00;63986.66;5022521;28;20053;-80
2024/03/07 03:45:45;;;;;;;37.90;19.13;;;0.90;99.90;;;-148.53;100.00;63986.66;5036067;28;20151;-80
2024/03/07 03:48:11;;;;;;;39.00;19.58;;;0.90;99.90;;;-148.53;100.00;63986.66;5024080;28;20172;-80
2024/03/07 03:50:36;;;;;;;37.55;18.65;;;0.90;99.90;;;-148.53;100.00;63986.66;5026194;28;20518;-80
2024/03/07 03:53:03;;;;;;;39.08;19.55;;;1.00;99.90;;;-148.53;100.00;63986.66;5015842;28;20061;-81
2024/03/07 03:55:29;;;;;;;40.08;19.02;;;1.00;99.90;;;-148.53;100.00;63986.66;5023921;28;20045;-81
2024/03/07 03:57:55;;;;;;;33.83;18.42;;;1.10;99.90;;;-148.53;100.00;63986.66;5018210;28;20038;-81
2024/03/07 04:00:22;;;;;;;34.72;18.58;;;1.10;99.90;;;-148.53;100.00;63986.66;5016379;28;20068;-80
2024/03/07 04:02:48;;;;;;;37.75;19.45;;;1.10;99.90;;;-148.53;100.00;63986.66;5029385;28;20483;-80
2024/03/07 04:05:20;;;;;;;41.05;18.80;;;1.10;99.90;;;-148.53;100.00;63986.66;5030202;28;20563;-81
2024/03/07 04:07:45;;;;;;;38.05;19.77;;;1.10;99.90;;;-148.53;100.00;63986.66;5012345;28;20083;-79
2024/03/07 04:10:12;;;;;;;39.83;21.15;;;1.10;99.90;;;-148.53;100.00;63986.66;5012634;28;20423;-80
2024/03/07 04:12:40;;;;;;;42.63;21.45;;;1.20;99.90;;;-148.53;100.00;63986.66;5015117;28;20025;-81
2024/03/07 04:15:10;;;;;;;38.72;20.17;;;1.20;99.90;;;-148.53;100.00;63986.66;5027887;28;20037;-81
2024/03/07 04:17:37;;;;;;;39.33;19.85;;;1.20;99.90;;;-148.53;100.00;63986.66;5022463;28;20120;-81
2024/03/07 04:20:06;;;;;;;44.50;20.63;;;1.30;99.90;;;-148.53;100.00;63986.66;5021388;28;20041;-81
2024/03/07 04:22:35;;;;;;;37.83;19.52;;;1.30;99.90;;;-148.53;100.00;63986.66;5012463;28;20417;-81
2024/03/07 04:25:06;;;;;;;36.75;19.27;;;1.30;99.90;;;-148.53;100.00;63986.66;5012851;28;20033;-81
2024/03/07 04:27:39;;;;;;;39.28;20.55;;;1.20;99.90;;;-148.53;100.00;63986.66;5026859;28;20112;-81
2024/03/07 04:30:07;;;;;;;39.58;19.85;;;1.30;99.90;;;-148.53;100.00;63986.66;5028613;28;20496;-81
2024/03/07 04:32:37;;;;;;;41.13;20.95;;;1.30;99.90;;;-148.53;100.00;63986.66;5023403;28;20034;-82
2024/03/07 04:35:07;;;;;;;37.67;19.42;;;1.30;99.90;;;-148.53;100.00;63986.66;5028121;28;20500;-81
2024/03/07 04:37:37;;;;;;;39.08;19.52;;;1.30;99.90;;;-148.53;100.00;63986.66;5028570;28;20477;-81
2024/03/07 04:40:15;;;;;;;41.63;21.48;;;1.40;99.90;;;-148.53;100.00;63986.66;5018579;28;20029;-81
2024/03/07 04:42:45;;;;;;;38.47;20.70;;;1.40;99.90;;;-148.53;100.00;63986.66;5016935;28;20057;-81
2024/03/07 04:45:15;;;;;;;42.33;20.20;;;1.50;99.90;;;-148.53;100.00;63986.66;5018719;28;20100;-81
2024/03/07 04:47:42;;;;;;;43.63;23.23;;;1.60;99.90;;;-148.53;100.00;63986.66;5017307;28;20034;-81
2024/03/07 04:50:12;;;;;;;43.23;22.83;;;1.60;99.90;;;-148.53;100.00;63986.66;5026104;28;20048;-81
2024/03/07 04:52:39;;;;;;;43.25;22.65;;;1.70;99.90;;;-148.53;100.00;63986.66;5017177;28;20084;-81
2024/03/07 04:55:12;;;;;;;48.25;24.45;;;1.70;99.90;;;-148.53;100.00;63986.66;5032559;28;20025;-81
2024/03/07 04:57:40;;;;;;;49.72;24.02;;;1.80;99.90;;;-148.53;100.00;63986.66;5027167;28;20037;-81
2024/03/07 05:00:14;;;;;;;45.97;24.00;;;1.80;99.90;;;-148.53;100.00;63986.66;5015898;28;20048;-82
2024/03/07 05:02:45;;;;;;;47.13;24.15;;;1.90;99.90;;;-148.53;100.00;63986.66;5021095;28;20440;-82
2024/03/07 05:05:11;;;;;;;47.25;24.65;;;1.90;99.90;;;-148.53;100.00;63986.66;5017881;28;20049;-81
2024/03/07 05:07:37;;;;;;;45.05;24.10;;;2.00;99.90;;;-148.53;100.00;63986.66;5021905;28;20042;-82
2024/03/07 05:10:08;;;;;;;53.70;24.65;;;2.00;99.90;;;-148.53;100.00;63986.66;5034940;28;20105;-82
2024/03/07 05:12:34;;;;;;;51.88;24.60;;;2.10;99.90;;;-148.53;100.00;63986.66;5026798;28;20509;-82
2024/03/07 05:15:00;;;;;;;50.80;25.05;;;2.10;99.90;;;-148.53;100.00;63986.66;5038483;28;20038;-82
2024/03/07 05:17:25;;;;;;;52.17;24.58;;;2.20;99.90;;;-148.53;100.00;63986.66;5028851;28;20102;-82
2024/03/07 05:19:51;;;;;;;49.70;25.00;;;2.20;99.90;;;-148.53;100.00;63986.66;5029408;28;20393;-83
2024/03/07 05:22:18;;;;;;;53.38;25.42;;;2.30;99.90;;;-148.53;100.00;63986.66;5024131;28;20088;-81
2024/03/07 05:24:43;;;;;;;45.92;24.83;;;2.30;99.90;;;-148.53;100.00;63986.66;5036983;28;20045;-80
2024/03/07 05:27:12;;;;;;;50.03;25.65;;;2.30;99.90;;;-148.53;100.00;63986.66;5044168;28;20081;-80
2024/03/07 05:29:39;;;;;;;53.28;27.83;;;2.30;99.90;;;-148.53;100.00;63986.66;5033286;28;20083;-81
2024/03/07 05:32:27;;;;;;;53.83;25.30;;;2.30;99.90;;;-148.53;100.00;63986.66;5040732;28;20049;-81
2024/03/07 05:34:53;;;;;;;51.78;26.00;;;2.30;99.90;;;-148.53;100.00;63986.66;5037315;28;20041;-80
2024/03/07 05:37:26;;;;;;;57.75;26.65;;;2.30;99.90;;;-148.53;100.00;63986.66;5038887;28;20043;-81
2024/03/07 05:39:52;;;;;;;55.38;26.65;;;2.30;99.90;;;-148.53;100.00;63986.66;5018824;28;20502;-83
2024/03/07 05:42:20;;;;;;;54.92;27.13;;;2.40;99.90;;;-148.53;100.00;63986.66;5041421;28;20050;-83
2024/03/07 05:44:46;;;;;;;55.25;27.35;;;2.40;99.90;;;-148.53;100.00;63986.66;5044290;28;20048;-81
2024/03/07 05:47:13;;;;;;;57.75;27.50;;;2.40;99.90;;;-148.53;100.00;63986.66;5029937;28;20092;-78
2024/03/07 05:49:39;;;;;;;70.57;29.92;;;2.40;99.90;;;-148.53;100.00;63986.66;5032192;28;20034;-78
2024/03/07 05:52:06;;;;;;;61.38;29.23;;;2.50;99.90;;;-148.53;100.00;63986.66;5030171;28;20045;-79
2024/03/07 05:54:32;;;;;;;62.77;28.87;;;2.50;99.90;;;-148.53;100.00;63986.66;5014574;28;20468;-79
2024/03/07 05:56:58;;;;;;;61.67;29.52;;;2.60;99.90;;;-148.53;100.00;63986.66;5038364;28;20076;-79
2024/03/07 05:59:24;;;;;;;67.72;30.23;;;2.60;99.90;;;-148.53;100.00;63986.66;5032600;28;20045;-81
2024/03/07 06:01:50;;;;;;;74.50;31.52;;;2.70;99.90;;;-148.53;100.00;63986.66;5025897;28;20045;-79
2024/03/07 06:04:16;;;;;;;60.28;29.65;;;2.70;99.90;;;-148.53;100.00;63986.66;5022895;28;20466;-79
2024/03/07 06:06:42;;;;;;;72.15;30.77;;;2.80;99.90;;;-148.53;100.00;63986.66;5027292;28;20497;-78
2024/03/07 06:09:09;;;;;;;69.88;30.83;;;2.80;99.90;;;-148.53;100.00;63986.66;5019402;28;20049;-79
2024/03/07 06:11:37;;;;;;;72.67;31.07;;;2.80;99.90;;;-148.53;100.00;63986.66;5039731;28;20029;-79
2024/03/07 06:14:05;;;;;;;67.07;29.88;;;2.90;99.90;;;-148.53;100.00;63986.66;5037593;28;20294;-78
2024/03/07 06:16:38;;;;;;;65.43;30.80;;;2.90;99.90;;;-148.53;100.00;63986.66;5037138;28;20120;-78
2024/03/07 06:19:08;;;;;;;67.40;30.95;;;3.00;99.90;;;-148.53;100.00;63986.66;5014686;28;20040;-78
2024/03/07 06:21:39;;;;;;;80.50;31.65;;;2.90;99.90;;;-148.53;100.00;63986.66;5030596;28;20037;-78
2024/03/07 06:24:07;;;;;;;82.25;32.35;;;2.90;99.90;;;-148.53;100.00;63986.66;5021251;28;20036;-78
2024/03/07 06:29:15;;;;;;;81.35;32.88;;;3.00;99.90;;;-148.53;100.00;63986.66;5021251;28;20034;-80
2024/03/07 06:31:42;;;;;;;73.43;32.45;;;3.00;99.90;;;-148.53;100.00;63986.66;5019722;28;20030;-81
2024/03/07 06:34:08;;;;;;;81.13;33.05;;;3.10;99.90;;;-148.53;100.00;63986.66;5023168;28;20030;-78
2024/03/07 06:36:35;;;;;;;74.70;32.63;;;3.10;99.90;;;-148.53;100.00;63986.66;5029262;28;20051;-77
2024/03/07 06:39:01;;;;;;;86.40;33.33;;;3.20;99.90;;;-148.53;100.00;63986.66;5028716;28;20469;-77
2024/03/07 06:41:26;;;;;;;80.97;32.90;;;3.30;99.90;;;-148.53;100.00;63986.66;5023178;28;20474;-77
2024/03/07 06:43:55;;;;;;;81.28;32.40;;;3.30;99.90;;;-148.53;100.00;63986.66;5018043;28;20044;-78
2024/03/07 06:46:21;;;;;;;;;;;3.40;99.90;;;-148.53;100.00;63986.66;5026132;28;20735;-78
2024/03/07 06:48:46;;;;;;;78.15;31.08;;;3.40;99.90;;;-148.53;100.00;63986.66;5027628;28;19960;-78
2024/03/07 06:51:13;;;;;;;73.07;30.58;;;3.40;99.90;;;-148.53;100.00;63986.66;5040191;28;20068;-80
2024/03/07 06:53:39;;;;;;;72.95;31.92;;;3.40;99.90;;;-148.53;100.00;63986.66;5031079;28;20069;-79
2024/03/07 06:56:06;;;;;;;61.95;29.67;;;3.50;99.90;;;-148.53;100.00;63986.66;5027739;28;20033;-79
2024/03/07 06:58:32;;;;;;;75.43;33.37;;;3.50;99.90;;;-148.53;100.00;63986.66;5027748;28;20057;-79
2024/03/07 07:01:00;;;;;;;72.00;29.98;;;3.50;99.90;;;-148.53;100.00;63986.66;5030990;28;20029;-78
2024/03/07 07:03:27;;;;;;;75.68;31.48;;;3.50;99.90;;;-148.53;100.00;63986.66;5032074;28;20038;-76
2024/03/07 07:05:54;;;;;;;74.30;31.20;;;3.50;99.90;;;-148.53;100.00;63986.66;5017121;28;20042;-77
2024/03/07 07:08:20;;;;;;;75.43;31.60;;;3.50;99.90;;;-148.53;100.00;63986.66;5019546;28;20482;-77
2024/03/07 07:10:47;;;;;;;71.25;31.92;;;3.70;99.90;;;-148.53;100.00;63986.66;5034617;28;20030;-79
2024/03/07 07:13:13;;;;;;;70.50;30.55;;;3.70;99.90;;;-148.53;100.00;63986.66;5013223;28;20038;-79
2024/03/07 07:15:39;;;;;;;72.78;31.48;;;3.80;99.90;;;-148.53;100.00;63986.66;4999746;28;20448;-79
2024/03/07 07:18:07;;;;;;;74.65;32.55;;;3.90;99.90;;;-148.53;100.00;63986.66;5025063;28;20042;-77
2024/03/07 07:20:36;;;;;;;70.60;31.75;;;3.90;99.90;;;-148.53;100.00;63986.66;5023300;28;20030;-79
2024/03/07 07:23:03;;;;;;;71.93;32.15;;;4.00;99.90;;;-148.53;100.00;63986.66;5042314;28;20041;-78
2024/03/07 07:25:30;;;;;;;63.35;29.17;;;4.00;99.90;;;-148.53;100.00;63986.66;5022637;28;20037;-79
2024/03/07 07:27:55;;;;;;;69.07;29.70;;;4.10;99.90;;;-148.53;100.00;63986.66;5023852;28;20107;-79
2024/03/07 07:30:23;;;;;;;70.15;31.67;;;4.20;99.90;;;-148.53;100.00;63986.66;5026413;28;20553;-77
2024/03/07 07:32:51;;;;;;;62.95;29.33;;;4.20;99.90;;;-148.53;100.00;63986.66;5025677;28;20063;-78
2024/03/07 07:35:17;;;;;;;72.35;30.27;;;4.20;99.90;;;-148.53;100.00;63986.66;5025137;28;20103;-78
2024/03/07 07:37:49;;;;;;;64.82;29.88;;;4.30;99.90;;;-148.53;100.00;63986.66;5028027;28;20040;-77
2024/03/07 07:40:22;;;;;;;65.47;29.27;;;4.30;99.90;;;-148.53;100.00;63986.66;5014379;28;20041;-78
2024/03/07 07:42:53;;;;;;;68.93;30.08;;;4.30;99.90;;;-148.53;100.00;63986.66;5016738;28;20037;-77
2024/03/07 07:45:22;;;;;;;68.03;30.42;;;4.40;99.90;;;-148.53;100.00;63986.66;5034819;28;20037;-76
2024/03/07 07:47:53;;;;;;;78.65;31.27;;;4.40;99.90;;;-148.53;100.00;63986.66;5016793;28;20048;-76
2024/03/07 07:50:23;;;;;;;71.97;30.55;;;4.50;99.90;;;-148.53;100.00;63986.66;5016523;28;20478;-77
2024/03/07 07:52:53;;;;;;;71.95;31.45;;;4.60;99.90;;;-148.53;100.00;63986.66;5016828;28;20038;-77
2024/03/07 07:55:24;;;;;;;67.40;29.73;;;4.70;99.90;;;-148.53;100.00;63986.66;5016022;28;20092;-77
2024/03/07 07:57:53;;;;;;;62.00;28.00;;;4.70;99.90;;;-148.53;100.00;63986.66;5034036;28;20443;-77
2024/03/07 08:00:22;;;;;;;66.68;29.83;;;4.80;99.90;;;-148.53;100.00;63986.66;5012911;28;20042;-77
2024/03/07 08:03:00;;;;;;;63.80;29.17;;;4.80;99.90;;;-148.53;100.00;63986.66;5012803;28;20033;-77
2024/03/07 08:05:32;;;;;;;64.93;29.97;;;4.90;99.90;;;-148.53;100.00;63986.66;5027027;28;20041;-77
2024/03/07 08:08:11;;;;;;;64.38;28.75;;;5.00;99.90;;;-148.53;100.00;63986.66;5013933;28;20041;-79
2024/03/07 08:10:39;;;;;;;;;;;5.00;99.90;;;-148.53;100.00;63986.66;5013027;28;20095;-77
2024/03/07 08:13:13;;;;;;;67.53;28.65;;;5.00;99.90;;;-148.53;100.00;63986.66;5017777;28;19963;-77
2024/03/07 08:15:39;;;;;;;63.60;27.38;;;5.10;99.90;;;-148.53;100.00;63986.66;5022447;28;20065;-78
2024/03/07 08:18:08;;;;;;;64.50;27.83;;;5.20;99.90;;;-148.53;100.00;63986.66;5023264;28;20033;-78
2024/03/07 08:20:34;;;;;;;65.82;28.23;;;5.30;99.90;;;-148.53;100.00;63986.66;5026330;28;20026;-78
2024/03/07 08:23:00;;;;;;;61.47;26.92;;;5.40;99.90;;;-148.53;100.00;63986.66;5025802;28;20113;-77
2024/03/07 08:25:29;;;;;;;61.67;26.95;;;5.60;99.90;;;-148.53;100.00;63986.66;5027533;28;20104;-77
2024/03/07 08:27:57;;;;;;;59.50;25.90;;;5.70;99.90;;;-148.53;100.00;63986.66;5025999;28;20038;-77
2024/03/07 08:30:24;;;;;;;56.53;27.20;;;5.70;99.90;;;-148.53;100.00;63986.66;5024661;28;20044;-77
2024/03/07 08:32:55;;;;;;;65.57;26.92;;;5.70;99.90;;;-148.53;100.00;63986.66;5009780;28;20034;-79
2024/03/07 08:35:22;;;;;;;58.90;26.10;;;5.70;99.90;;;-148.53;100.00;63986.66;5023625;28;20030;-79
2024/03/07 08:37:52;;;;;;;64.33;25.43;;;5.70;99.90;;;-148.53;100.00;63986.66;5016639;28;20025;-80
2024/03/07 08:40:20;;;;;;;64.25;26.30;;;5.70;99.90;;;-148.53;100.00;63986.66;5026080;28;20038;-85
2024/03/07 08:42:49;;;;;;;60.65;26.65;;;5.80;99.90;;;-148.53;100.00;63986.66;5029141;28;20034;-86
2024/03/07 08:45:18;;;;;;;60.25;24.10;;;5.90;99.90;;;-148.53;100.00;63986.66;5024857;28;20042;-86
2024/03/07 08:47:49;;;;;;;58.42;25.60;;;5.80;99.90;;;-148.53;100.00;63986.66;5031242;28;20389;-86
2024/03/07 08:50:17;;;;;;;52.08;23.60;;;6.00;99.90;;;-148.53;100.00;63986.66;5033509;28;20037;-87
2024/03/07 08:52:50;;;;;;;;;;;6.00;99.90;;;-148.53;100.00;63986.66;5011718;28;20026;-86
2024/03/07 08:55:23;;;;;;;59.03;24.52;;;6.10;99.90;;;-148.53;100.00;63986.66;5033696;28;20010;-86
2024/03/07 08:57:49;;;;;;;52.80;23.98;;;6.20;99.90;;;-148.53;100.00;63986.66;5030143;28;20034;-86
2024/03/07 09:00:23;;;;;;;55.65;23.85;;;6.30;99.90;;;-148.53;100.00;63986.66;5032041;28;20041;-86
2024/03/07 09:02:57;;;;;;;54.10;23.67;;;6.40;99.90;;;-148.53;100.00;63986.66;5021560;28;20103;-82
2024/03/07 09:05:24;;;;;;;53.60;23.50;;;;;;;-148.53;100.00;63986.66;5027589;28;20073;-82
2024/03/07 09:07:52;;;;;;;57.88;24.58;;;6.60;99.90;;;-148.53;100.00;63986.66;5021623;28;20553;-83
2024/03/07 09:10:18;;;;;;;55.25;24.38;;;6.90;99.90;;;-148.53;100.00;63986.66;5025185;28;20040;-83
2024/03/07 09:12:45;;;;;;;54.80;23.73;;;7.10;99.90;;;-148.53;100.00;63986.66;5014044;28;20074;-83
2024/03/07 09:15:11;;;;;;;52.63;23.13;;;7.10;99.90;;;-148.53;100.00;63986.66;5020659;28;20061;-82
2024/03/07 09:17:38;;;;;;;52.03;23.40;;;7.10;99.90;;;-148.53;100.00;63986.66;5014388;28;20037;-86
2024/03/07 09:20:06;;;;;;;45.05;22.10;;;7.10;99.90;;;-148.53;100.00;63986.66;5022412;28;20565;-84
2024/03/07 09:22:32;;;;;;;49.83;22.40;;;7.10;99.90;;;-148.53;100.00;63986.66;5019718;28;20522;-85
2024/03/07 09:24:58;;;;;;;50.58;23.92;;;7.10;99.90;;;-148.53;100.00;63986.66;5029063;28;20040;-82
2024/03/07 09:27:24;;;;;;;49.88;22.27;;;7.00;99.90;;;-148.53;100.00;63986.66;5019334;28;20034;-80
2024/03/07 09:29:50;;;;;;;53.63;23.27;;;6.80;99.90;;;-148.53;100.00;63986.66;5038741;28;20033;-78
2024/03/07 09:32:16;;;;;;;53.20;23.75;;;6.80;99.90;;;-148.53;100.00;63986.66;5032529;28;20041;-79
2024/03/07 09:34:42;;;;;;;46.40;22.17;;;6.70;99.90;;;-148.53;100.00;63986.66;5025531;28;20044;-81
2024/03/07 09:37:08;;;;;;;52.28;23.33;;;6.50;99.90;;;-148.53;100.00;63986.66;5027236;28;20476;-82
2024/03/07 09:39:35;;;;;;;55.33;23.67;;;6.50;99.90;;;-148.53;100.00;63986.66;5040015;28;20038;-77
2024/03/07 09:42:02;;;;;;;55.88;22.67;;;6.40;99.90;;;-148.53;100.00;63986.66;5013922;28;20430;-76
2024/03/07 09:44:31;;;;;;;54.85;22.52;;;6.40;99.90;;;-148.53;100.00;63986.66;5021756;28;20084;-77
2024/03/07 09:47:00;;;;;;;58.20;24.00;;;6.30;99.90;;;-148.53;100.00;63986.66;5015504;28;20473;-78
2024/03/07 09:49:28;;;;;;;55.08;23.67;;;6.20;99.90;;;-148.53;100.00;63986.66;5036813;28;20057;-77
2024/03/07 09:51:57;;;;;;;58.80;23.45;;;6.00;99.90;;;-148.53;100.00;63986.66;5022885;28;20029;-77
2024/03/07 09:54:26;;;;;;;61.58;24.40;;;5.90;99.90;;;-148.53;100.00;63986.66;5030508;28;20504;-78
2024/03/07 09:56:57;;;;;;;63.53;23.40;;;6.00;99.90;;;-148.53;100.00;63986.66;5029412;28;20026;-77
2024/03/07 09:59:28;;;;;;;55.40;23.08;;;6.00;99.90;;;-148.53;100.00;63986.66;5029241;28;20077;-77